Time;durP1;ratioP1;P1;durP2;ratioP2;P2;SDS_P1;SDS_P2;PMS_P1;PMS_P2;Temp;Humidity;BMP_temperature;BMP_pressure;BME280_temperature;BME280_humidity;BME280_pressure;Samples;Min_cycle;Max_cycle;Signal;HPM_P1;HPM_P2
2022/12/14 00:01:25;;;;;;;20.77;18.58;;;;;;;-4.17;100.00;100362.84;5091219;29;20028;-90
2022/12/14 00:03:56;;;;;;;20.27;18.20;;;;;;;-3.81;100.00;100435.19;5092255;29;20031;-91
2022/12/14 00:06:31;;;;;;;24.00;21.45;;;;;;;-3.74;100.00;100440.56;5092353;29;20020;-90
2022/12/14 00:09:03;;;;;;;21.98;19.95;;;;;;;-3.76;100.00;100439.94;5110923;29;20497;-90
2022/12/14 00:11:33;;;;;;;21.30;19.30;;;;;;;-3.90;100.00;100423.03;5110294;29;20030;-90
2022/12/14 00:14:04;;;;;;;21.70;19.48;;;;;;;-5.05;100.00;100249.78;5094978;29;20027;-91
2022/12/14 00:16:35;;;;;;;24.23;21.83;;;;;;;-4.65;100.00;100296.22;5093709;29;20024;-90
2022/12/14 00:19:05;;;;;;;22.63;19.92;;;;;;;-3.96;100.00;100428.97;5109115;29;20015;-89
2022/12/14 00:21:35;;;;;;;21.83;19.48;;;;;;;-4.02;100.00;100407.75;5092078;29;20100;-89
2022/12/14 00:24:06;;;;;;;17.48;16.13;;;;;;;-3.83;100.00;100416.06;5091713;29;20028;-90
2022/12/14 00:26:36;;;;;;;22.38;18.23;;;;;;;-3.95;100.00;100406.88;5092049;29;20028;-89
2022/12/14 00:29:06;;;;;;;19.33;17.52;;;;;;;-4.02;100.00;100397.19;5108865;29;20082;-90
2022/12/14 00:31:37;;;;;;;15.75;14.35;;;;;;;-4.03;100.00;100390.28;5091894;29;20064;-90
2022/12/14 00:34:07;;;;;;;18.73;16.77;;;;;;;-4.39;100.00;100327.53;5092078;29;20130;-90
2022/12/14 00:36:37;;;;;;;17.50;15.85;;;;;;;-3.96;100.00;100394.69;5091694;29;20051;-89
2022/12/14 00:39:08;;;;;;;15.55;14.07;;;;;;;-4.28;100.00;100340.31;5091896;29;20031;-90
2022/12/14 00:41:38;;;;;;;15.73;14.15;;;;;;;-4.16;100.00;100360.03;5091893;29;20034;-89
2022/12/14 00:44:08;;;;;;;15.73;14.23;;;;;;;-4.28;100.00;100345.59;5091567;29;20028;-90
2022/12/14 00:46:39;;;;;;;16.50;15.00;;;;;;;-3.96;100.00;100407.88;5091455;29;20060;-90
2022/12/14 00:49:09;;;;;;;19.02;17.45;;;;;;;-4.06;100.00;100401.19;5091724;29;20066;-91
2022/12/14 00:51:40;;;;;;;18.67;16.95;;;;;;;-4.19;100.00;100365.66;5091800;29;20382;-89
2022/12/14 00:54:10;;;;;;;18.33;15.40;;;;;;;-4.48;100.00;100336.47;5091633;29;20059;-90
2022/12/14 00:56:40;;;;;;;18.00;16.17;;;;;;;-4.53;100.00;100329.06;5108452;29;20059;-90
2022/12/14 00:59:11;;;;;;;16.63;15.32;;;;;;;-4.54;100.00;100359.06;5091512;29;20031;-91
2022/12/14 01:01:41;;;;;;;18.45;15.77;;;;;;;-4.29;100.00;100393.22;5108336;29;20083;-91
2022/12/14 01:04:18;;;;;;;17.60;16.13;;;;;;;-4.30;100.00;100388.94;5108279;29;20502;-90
2022/12/14 01:06:51;;;;;;;17.42;15.80;;;;;;;-4.29;100.00;100374.75;5091400;29;20032;-91
2022/12/14 01:09:23;;;;;;;17.17;15.88;;;;;;;-4.30;100.00;100384.47;5108097;29;20039;-90
2022/12/14 01:11:53;;;;;;;34.92;16.63;;;;;;;-6.09;100.00;100104.47;5090863;29;20031;-89
2022/12/14 01:14:24;;;;;;;15.75;14.30;;;;;;;-5.22;100.00;100256.94;5091179;29;20027;-91
2022/12/14 01:16:54;;;;;;;15.98;14.55;;;;;;;-4.35;100.00;100383.38;5091340;29;20572;-91
2022/12/14 01:19:24;;;;;;;18.00;14.60;;;;;;;-4.64;100.00;100333.91;5091185;29;20399;-90
2022/12/14 01:21:55;;;;;;;17.52;15.70;;;;;;;-5.38;100.00;100269.28;5091057;29;20082;-90
2022/12/14 01:24:25;;;;;;;19.15;17.58;;;;;;;-4.53;100.00;100373.88;5107856;29;20031;-91
2022/12/14 01:26:56;;;;;;;18.33;16.40;;;;;;;-4.89;100.00;100326.06;5090824;29;20035;-90
2022/12/14 01:29:26;;;;;;;18.70;16.73;;;;;;;-5.12;100.00;100288.31;5090872;29;20123;-91
2022/12/14 01:31:56;;;;;;;19.30;17.55;;;;;;;-5.15;100.00;100257.03;5090522;29;20039;-91
2022/12/14 01:34:27;;;;;;;17.48;15.82;;;;;;;-4.55;100.00;100380.31;5091152;29;20023;-90
2022/12/14 01:36:57;;;;;;;18.95;17.30;;;;;;;-5.34;100.00;100273.22;5107969;29;20027;-91
2022/12/14 01:39:28;;;;;;;18.08;16.42;;;;;;;-4.51;100.00;100363.16;5090588;29;20079;-91
2022/12/14 01:41:58;;;;;;;17.58;14.95;;;;;;;-4.77;100.00;100313.38;5090753;29;20090;-91
2022/12/14 01:44:28;;;;;;;17.33;15.57;;;;;;;-4.31;100.00;100372.28;5090821;29;20114;-90
2022/12/14 01:47:07;;;;;;;16.88;15.13;;;;;;;-4.31;100.00;100380.19;5090988;29;20446;-91
2022/12/14 01:49:40;;;;;;;19.40;17.38;;;;;;;-4.33;100.00;100382.19;5138985;23;20407;-65
2022/12/14 01:52:10;;;;;;;17.58;15.68;;;;;;;-4.38;100.00;100381.91;5139879;28;20115;-65
2022/12/14 01:54:53;;;;;;;20.27;17.00;;;;;;;-4.43;100.00;100373.69;5125939;28;20110;-67
2022/12/14 01:57:28;;;;;;;18.85;16.65;;;;;;;-4.51;100.00;100363.16;5126318;28;20019;-66
2022/12/14 02:00:00;;;;;;;18.83;17.05;;;;;;;-4.47;100.00;100367.09;5108772;29;20054;-69
2022/12/14 02:02:31;;;;;;;17.20;15.38;;;;;;;-4.54;100.00;100358.22;5125733;28;20027;-65
2022/12/14 02:05:04;;;;;;;18.50;16.92;;;;;;;-4.55;100.00;100351.31;5126004;28;20093;-66
2022/12/14 02:07:36;;;;;;;17.85;16.15;;;;;;;-4.54;100.00;100347.69;5125407;28;20027;-64
2022/12/14 02:10:09;;;;;;;18.20;16.08;;;;;;;-4.55;100.00;100343.41;5108546;29;20158;-64
2022/12/14 02:12:46;;;;;;;18.83;16.48;;;;;;;-4.57;100.00;100334.84;5125309;29;20027;-65
2022/12/14 02:15:18;;;;;;;17.25;15.60;;;;;;;-4.61;100.00;100344.09;5125249;28;20506;-64
2022/12/14 02:17:48;;;;;;;18.55;16.95;;;;;;;-4.62;100.00;100342.47;5125003;28;20027;-65
2022/12/14 02:20:21;;;;;;;17.25;15.65;;;;;;;-4.73;100.00;100324.41;5125482;29;20396;-64
2022/12/14 02:23:10;;;;;;;17.00;15.30;;;;;;;-4.61;100.00;100349.34;5125132;28;20105;-64
2022/12/14 02:25:53;;;;;;;20.67;16.00;;;;;;;-4.64;100.00;100349.72;5108225;29;20031;-67
2022/12/14 02:28:29;;;;;;;18.63;17.05;;;;;;;-4.67;100.00;100334.25;5125514;28;20122;-64
2022/12/14 02:31:25;;;;;;;15.25;14.07;;;;;;;-4.71;100.00;100339.03;5124527;28;20031;-65
2022/12/14 02:34:17;;;;;;;15.95;14.40;;;;;;;-4.67;100.00;100350.06;5124645;28;20396;-65
2022/12/14 02:36:50;;;;;;;17.52;15.57;;;;;;;-4.64;100.00;100347.09;5108064;29;20546;-64
2022/12/14 02:39:51;;;;;;;22.33;18.55;;;;;;;-4.60;100.00;100348.38;5125146;28;20031;-67
2022/12/14 02:42:52;;;;;;;18.40;16.58;;;;;;;-4.56;100.00;100352.31;5124713;28;20395;-64
2022/12/14 02:45:25;;;;;;;16.73;14.93;;;;;;;-4.51;100.00;100344.72;5110363;29;20487;-64
2022/12/14 02:48:03;;;;;;;16.95;15.25;;;;;;;-4.58;100.00;100317.41;5125378;29;20400;-65
2022/12/14 02:50:50;;;;;;;15.75;14.32;;;;;;;-4.43;100.00;100336.78;5124886;29;20043;-67
2022/12/14 02:53:23;;;;;;;17.55;15.90;;;;;;;-4.42;100.00;100336.63;5124377;28;20059;-64
2022/12/14 02:55:59;;;;;;;18.08;16.17;;;;;;;-4.40;100.00;100335.63;5124931;29;20079;-67
2022/12/14 02:58:42;;;;;;;17.10;15.02;;;;;;;-4.39;100.00;100332.00;5124881;29;20023;-67
2022/12/14 03:01:17;;;;;;;17.90;16.23;;;;;;;-4.39;100.00;100324.09;5124606;28;20042;-64
2022/12/14 03:03:48;;;;;;;16.48;15.15;;;;;;;-4.39;100.00;100324.91;5124506;28;20027;-65
2022/12/14 03:06:24;;;;;;;17.63;15.98;;;;;;;-4.39;100.00;100311.72;5124335;28;20379;-68
2022/12/14 03:09:06;;;;;;;17.80;16.02;;;;;;;-4.48;100.00;100296.94;5124238;29;20100;-64
2022/12/14 03:11:45;;;;;;;19.27;17.65;;;;;;;-4.36;100.00;100314.03;5107111;29;20031;-65
2022/12/14 03:14:37;;;;;;;19.63;17.65;;;;;;;-4.39;100.00;100316.19;5123832;28;20023;-65
2022/12/14 03:17:18;;;;;;;16.67;15.30;;;;;;;-4.39;100.00;100311.72;5124375;29;20476;-65
2022/12/14 03:19:53;;;;;;;17.05;15.68;;;;;;;-4.42;100.00;100306.81;5106973;29;20567;-65
2022/12/14 03:22:30;;;;;;;15.50;14.05;;;;;;;-4.35;100.00;100309.56;5124265;29;20030;-65
2022/12/14 03:25:08;;;;;;;20.63;18.52;;;;;;;-4.35;100.00;100304.31;5124679;28;20033;-64
2022/12/14 03:27:54;;;;;;;19.45;17.45;;;;;;;-4.43;100.00;100290.19;5124197;29;20016;-64
2022/12/14 03:30:26;;;;;;;16.85;15.38;;;;;;;-4.28;100.00;100298.16;5124011;29;20154;-64
2022/12/14 03:33:03;;;;;;;25.55;16.10;;;;;;;-4.26;100.00;100290.88;5123650;28;20111;-64
2022/12/14 03:35:41;;;;;;;17.27;15.77;;;;;;;-4.37;100.00;100272.03;5124114;29;20110;-65
2022/12/14 03:38:27;;;;;;;16.65;15.32;;;;;;;-4.27;100.00;100283.97;5125037;29;20460;-66
2022/12/14 03:41:16;;;;;;;17.42;15.68;;;;;;;-4.25;100.00;100281.97;5124122;28;20402;-65
2022/12/14 03:44:23;;;;;;;17.70;16.27;;;;;;;-4.28;100.00;100279.69;5105756;29;20023;-65
2022/12/14 03:46:56;;;;;;;17.35;14.27;;;;;;;-4.23;100.00;100290.53;5124401;28;20027;-64
2022/12/14 03:50:02;;;;;;;17.48;15.80;;;;;;;-4.23;100.00;100277.38;5124296;28;20491;-66
2022/12/14 03:52:32;;;;;;;17.38;15.98;;;;;;;-4.19;100.00;100280.47;5094197;28;20062;-67
2022/12/14 03:55:09;;;;;;;16.00;14.70;;;;;;;-4.17;100.00;100284.59;5124557;28;20027;-68
2022/12/14 03:57:58;;;;;;;19.13;15.32;;;;;;;-4.16;100.00;100264.31;5124379;28;20086;-64
2022/12/14 04:00:34;;;;;;;16.85;15.23;;;;;;;-4.12;100.00;100261.16;5107018;29;20027;-64
2022/12/14 04:03:18;;;;;;;20.98;19.05;;;;;;;-4.12;100.00;100253.25;5123984;28;20023;-65
2022/12/14 04:06:00;;;;;;;16.98;15.60;;;;;;;-4.25;100.00;100231.91;5124173;28;20103;-64
2022/12/14 04:08:44;;;;;;;17.38;15.85;;;;;;;-4.09;100.00;100250.25;5124363;29;20031;-67
2022/12/14 04:20:01;;;;;;;18.02;16.48;;;;;;;-4.11;100.00;100260.16;5124329;29;20098;-65
2022/12/14 04:22:37;;;;;;;18.27;16.58;;;;;;;-4.20;100.00;100242.75;5123738;29;20035;-64
2022/12/14 04:31:11;;;;;;;16.95;15.25;;;;;;;-4.17;100.00;100245.03;5124326;29;20106;-65
2022/12/14 04:33:48;;;;;;;15.68;14.07;;;;;;;-4.18;100.00;100251.31;5123199;28;20023;-64
2022/12/14 04:36:39;;;;;;;19.42;17.45;;;;;;;-4.19;100.00;100249.66;5123851;29;20388;-66
2022/12/14 04:39:18;;;;;;;18.67;16.92;;;;;;;-4.34;100.00;100217.16;5123623;29;20027;-64
2022/12/14 04:41:51;;;;;;;22.40;16.55;;;;;;;-4.17;100.00;100249.50;5123242;29;20024;-64
2022/12/14 04:44:28;;;;;;;17.95;16.42;;;;;;;-4.24;100.00;100228.28;5123723;28;20038;-65
2022/12/14 04:47:01;;;;;;;18.50;17.00;;;;;;;-4.18;100.00;100230.22;5123767;28;20110;-67
2022/12/14 04:49:42;;;;;;;18.00;16.33;;;;;;;-4.29;100.00;100217.44;5123355;29;20074;-67
2022/12/14 04:52:25;;;;;;;16.52;15.20;;;;;;;-4.19;100.00;100233.84;5123349;29;20029;-65
2022/12/14 04:54:59;;;;;;;17.13;15.50;;;;;;;-4.20;100.00;100228.75;5107974;29;20046;-66
2022/12/14 04:57:45;;;;;;;17.02;15.25;;;;;;;-4.21;100.00;100235.00;5127570;29;20437;-67
2022/12/14 05:00:15;;;;;;;15.20;13.75;;;;;;;-4.20;100.00;100237.47;5110144;28;20361;-64
2022/12/14 05:03:07;;;;;;;18.20;16.50;;;;;;;-4.18;100.00;100234.66;5126569;29;20035;-65
2022/12/14 05:05:40;;;;;;;17.63;16.13;;;;;;;-4.19;100.00;100228.56;5127114;29;20114;-65
2022/12/14 05:08:20;;;;;;;16.52;14.93;;;;;;;-4.19;100.00;100238.28;5126882;28;20031;-65
2022/12/14 05:11:00;;;;;;;16.67;15.07;;;;;;;-4.32;100.00;100225.69;5127400;29;20036;-66
2022/12/14 05:13:39;;;;;;;18.73;16.95;;;;;;;-4.18;100.00;100238.13;5126737;28;20027;-66
2022/12/14 05:16:11;;;;;;;17.38;15.48;;;;;;;-4.29;100.00;100208.69;5126840;29;20034;-65
2022/12/14 05:18:42;;;;;;;13.98;12.77;;;;;;;-4.18;100.00;100217.03;5126360;28;20023;-66
2022/12/14 05:21:45;;;;;;;17.08;15.52;;;;;;;-4.15;100.00;100223.78;5127278;29;20097;-67
2022/12/14 05:24:04;;;;;;;18.15;14.35;;;;;;;-4.14;100.00;100209.59;5126483;28;20055;-64
2022/12/14 05:26:34;;;;;;;18.08;16.67;;;;;;;-4.18;100.00;100208.31;5127148;28;20444;-65
2022/12/14 05:29:05;;;;;;;19.27;17.38;;;;;;;-4.29;100.00;100184.97;5126755;29;20031;-65
2022/12/14 05:31:35;;;;;;;16.33;14.82;;;;;;;-4.13;100.00;100216.50;5126876;28;20031;-65
2022/12/14 05:34:06;;;;;;;17.42;15.98;;;;;;;-4.14;100.00;100215.69;5126007;28;20398;-66
2022/12/14 05:36:36;;;;;;;18.00;16.30;;;;;;;-4.13;100.00;100229.69;5109277;29;20026;-66
2022/12/14 05:39:06;;;;;;;17.40;16.10;;;;;;;-4.17;100.00;100223.94;5126815;29;20023;-65
2022/12/14 05:41:37;;;;;;;17.08;15.63;;;;;;;-4.18;100.00;100237.31;5108821;28;20082;-65
2022/12/14 05:44:07;;;;;;;20.90;16.23;;;;;;;-4.18;100.00;100230.22;5125882;28;20031;-66
2022/12/14 05:46:38;;;;;;;21.30;19.50;;;;;;;-4.23;100.00;100226.47;5126529;29;20024;-67
2022/12/14 05:49:08;;;;;;;17.88;16.17;;;;;;;-4.26;100.00;100213.63;5124112;28;20034;-66
2022/12/14 05:51:38;;;;;;;18.60;16.92;;;;;;;-4.23;100.00;100221.19;5126031;28;20034;-65
2022/12/14 05:54:09;;;;;;;18.10;16.38;;;;;;;-4.26;100.00;100225.00;5124921;28;20030;-65
2022/12/14 05:56:39;;;;;;;17.92;16.52;;;;;;;-4.25;100.00;100233.72;5126082;28;20097;-65
2022/12/14 05:59:14;;;;;;;17.23;15.52;;;;;;;-4.30;100.00;100242.16;5125354;28;20559;-65
2022/12/14 06:01:45;;;;;;;16.98;15.55;;;;;;;-4.30;100.00;100236.88;5125172;29;20030;-67
2022/12/14 06:04:16;;;;;;;20.95;18.70;;;;;;;-4.30;100.00;100225.50;5125264;28;20028;-64
2022/12/14 06:06:46;;;;;;;19.02;17.42;;;;;;;-4.29;100.00;100214.78;5107275;29;20215;-65
2022/12/14 06:09:17;;;;;;;15.95;14.57;;;;;;;-4.29;100.00;100222.69;5125029;28;20031;-69
2022/12/14 06:11:48;;;;;;;19.35;17.73;;;;;;;-4.29;100.00;100222.69;5108016;29;20031;-65
2022/12/14 06:14:19;;;;;;;17.65;16.25;;;;;;;-4.28;100.00;100216.44;5125316;28;20043;-68
2022/12/14 06:16:50;;;;;;;17.45;15.75;;;;;;;-4.28;100.00;100207.72;5125233;29;20077;-66
2022/12/14 06:19:20;;;;;;;17.48;15.98;;;;;;;-4.34;100.00;100217.16;5125001;28;20035;-65
2022/12/14 06:21:50;;;;;;;16.52;15.02;;;;;;;-4.36;100.00;100211.25;5125024;28;20147;-66
2022/12/14 06:24:21;;;;;;;16.27;14.65;;;;;;;-4.35;100.00;100207.63;5124770;28;20026;-65
2022/12/14 06:26:51;;;;;;;17.35;16.00;;;;;;;-4.39;100.00;100200.22;5108276;29;20031;-64
2022/12/14 06:29:21;;;;;;;26.85;16.95;;;;;;;-4.31;100.00;100213.31;5124731;28;20031;-70
2022/12/14 06:31:52;;;;;;;20.27;15.65;;;;;;;-4.28;100.00;100213.81;5124543;29;20034;-70
2022/12/14 06:34:22;;;;;;;18.02;16.60;;;;;;;-4.29;100.00;100216.59;5124929;28;20039;-65
2022/12/14 06:36:53;;;;;;;17.80;15.80;;;;;;;-4.33;100.00;100226.69;5124869;28;20103;-65
2022/12/14 06:39:23;;;;;;;23.33;19.15;;;;;;;-4.37;100.00;100225.41;5121540;29;20031;-64
2022/12/14 06:41:53;;;;;;;16.80;15.27;;;;;;;-4.42;100.00;100218.03;5139556;28;20027;-69
2022/12/14 06:44:24;;;;;;;16.73;15.43;;;;;;;-4.43;100.00;100221.66;5127361;28;20081;-64
2022/12/14 06:46:54;;;;;;;19.35;15.98;;;;;;;-4.44;100.00;100220.00;5144935;28;20102;-68
2022/12/14 06:49:25;;;;;;;21.05;18.92;;;;;;;-4.44;100.00;100219.19;5127199;28;20126;-65
2022/12/14 06:51:56;;;;;;;19.83;18.02;;;;;;;-4.46;100.00;100218.53;5144443;28;20031;-64
2022/12/14 06:54:26;;;;;;;18.63;16.65;;;;;;;-4.50;100.00;100217.25;5144209;28;20512;-66
2022/12/14 06:56:56;;;;;;;19.80;18.23;;;;;;;-4.56;100.00;100216.13;5144252;28;20085;-65
2022/12/14 06:59:27;;;;;;;20.77;19.08;;;;;;;-4.60;100.00;100214.81;5144552;28;20117;-64
2022/12/14 07:01:57;;;;;;;21.27;19.02;;;;;;;-4.70;100.00;100213.44;5143758;28;20031;-68
2022/12/14 07:04:27;;;;;;;19.15;17.15;;;;;;;-4.81;100.00;100212.81;5144515;28;20030;-68
2022/12/14 07:06:58;;;;;;;23.17;18.80;;;;;;;-4.89;100.00;100222.56;5144252;28;20042;-67
2022/12/14 07:09:28;;;;;;;19.58;17.98;;;;;;;-4.95;100.00;100213.56;5143917;28;20038;-65
2022/12/14 07:11:59;;;;;;;27.67;19.63;;;;;;;-4.98;100.00;100219.16;5143627;28;20034;-64
2022/12/14 07:14:29;;;;;;;21.08;19.08;;;;;;;-5.02;100.00;100220.50;5143897;28;20098;-64
2022/12/14 07:17:00;;;;;;;18.38;16.75;;;;;;;-5.05;100.00;100214.75;5143937;28;20073;-64
2022/12/14 07:19:30;;;;;;;20.35;17.35;;;;;;;-5.10;100.00;100197.63;5143830;28;20081;-68
2022/12/14 07:22:03;;;;;;;25.05;19.48;;;;;;;-4.94;100.00;100214.38;5143650;28;20035;-67
2022/12/14 07:24:33;;;;;;;19.60;17.70;;;;;;;-5.21;100.00;100168.25;5144117;28;20037;-64
2022/12/14 07:27:04;;;;;;;21.92;18.73;;;;;;;-4.87;100.00;100224.03;5144417;28;20022;-66
2022/12/14 07:29:34;;;;;;;21.45;19.90;;;;;;;-4.82;100.00;100220.88;5143791;28;20027;-69
2022/12/14 07:32:05;;;;;;;20.45;18.67;;;;;;;-4.77;100.00;100213.28;5143111;28;20109;-68
2022/12/14 07:34:35;;;;;;;24.00;21.65;;;;;;;-4.85;100.00;100202.78;5143819;28;20081;-66
2022/12/14 07:37:06;;;;;;;20.10;18.42;;;;;;;-4.78;100.00;100211.66;5144304;28;20034;-66
2022/12/14 07:39:36;;;;;;;33.95;21.38;;;;;;;-4.80;100.00;100211.00;5126142;28;20065;-65
2022/12/14 07:42:07;;;;;;;20.60;18.98;;;;;;;-4.80;100.00;100217.09;5143874;28;20080;-64
2022/12/14 07:44:37;;;;;;;23.67;22.00;;;;;;;-4.82;100.00;100210.34;5143903;28;20210;-69
2022/12/14 07:47:07;;;;;;;23.38;20.98;;;;;;;-4.85;100.00;100218.59;5144690;28;20019;-67
2022/12/14 07:49:38;;;;;;;21.17;19.30;;;;;;;-4.85;100.00;100232.56;5127449;28;20415;-67
2022/12/14 07:52:08;;;;;;;18.40;16.80;;;;;;;-4.84;100.00;100231.59;5144574;28;20105;-66
2022/12/14 07:54:38;;;;;;;22.42;20.67;;;;;;;-4.81;100.00;100233.06;5145783;28;20030;-66
2022/12/14 07:57:09;;;;;;;20.27;18.33;;;;;;;-4.82;100.00;100234.06;5138237;23;20118;-60
2022/12/14 07:59:39;;;;;;;19.70;18.00;;;;;;;-4.89;100.00;100236.53;5139680;28;20514;-58
2022/12/14 08:02:10;;;;;;;22.15;20.15;;;;;;;-4.90;100.00;100244.59;5142147;28;20053;-58
2022/12/14 08:04:41;;;;;;;23.30;20.40;;;;;;;-5.06;100.00;100219.19;5142371;28;20061;-61
2022/12/14 08:07:11;;;;;;;23.52;21.08;;;;;;;-5.02;100.00;100240.72;5143581;28;20265;-59
2022/12/14 08:09:42;;;;;;;27.35;18.02;;;;;;;-5.09;100.00;100237.94;5143902;28;20042;-59
2022/12/14 08:12:12;;;;;;;21.65;19.75;;;;;;;-5.24;100.00;100221.22;5143635;28;20034;-60
2022/12/14 08:14:42;;;;;;;20.27;18.45;;;;;;;-5.34;100.00;100220.59;5143819;28;20034;-62
2022/12/14 08:17:13;;;;;;;23.15;20.92;;;;;;;-5.27;100.00;100225.03;5143768;28;20102;-64
2022/12/14 08:19:43;;;;;;;21.35;19.35;;;;;;;-5.19;100.00;100224.97;5143927;28;20023;-64
2022/12/14 08:22:13;;;;;;;22.02;20.27;;;;;;;-5.18;100.00;100224.00;5126171;28;20027;-64
2022/12/14 08:24:44;;;;;;;22.02;19.85;;;;;;;-5.12;100.00;100233.03;5143694;28;20031;-64
2022/12/14 08:27:14;;;;;;;20.95;19.10;;;;;;;-5.11;100.00;100238.13;5143705;28;20027;-63
2022/12/14 08:29:44;;;;;;;22.73;20.42;;;;;;;-5.14;100.00;100235.00;5145148;28;20030;-63
2022/12/14 08:32:15;;;;;;;25.65;20.38;;;;;;;-5.13;100.00;100234.84;5129962;28;20034;-63
2022/12/14 08:34:45;;;;;;;21.10;18.95;;;;;;;-5.22;100.00;100225.34;5147670;28;20034;-63
2022/12/14 08:37:15;;;;;;;23.15;21.13;;;;;;;-5.15;100.00;100236.00;5147745;28;20026;-64
2022/12/14 08:39:46;;;;;;;20.35;18.55;;;;;;;-5.17;100.00;100232.69;5147559;28;20117;-63
2022/12/14 08:42:16;;;;;;;23.65;21.58;;;;;;;-5.41;100.00;100209.09;5147036;28;20122;-63
2022/12/14 08:44:47;;;;;;;27.63;21.63;;;;;;;-5.19;100.00;100240.78;5147554;28;20097;-63
2022/12/14 08:47:17;;;;;;;21.98;19.63;;;;;;;-5.22;100.00;100229.78;5147397;28;20027;-63
2022/12/14 08:49:48;;;;;;;24.17;19.48;;;;;;;-5.18;100.00;100238.97;5147918;28;20026;-63
2022/12/14 08:52:20;;;;;;;25.20;19.73;;;;;;;-5.18;100.00;100246.84;5147130;28;20475;-64
2022/12/14 08:54:50;;;;;;;19.52;17.77;;;;;;;-5.28;100.00;100231.28;5147082;28;20034;-65
2022/12/14 08:57:20;;;;;;;19.75;18.25;;;;;;;-5.14;100.00;100259.50;5147151;28;20038;-63
2022/12/14 08:59:51;;;;;;;22.98;20.55;;;;;;;-5.04;100.00;100247.97;5147108;28;20019;-63
2022/12/14 09:02:21;;;;;;;22.52;20.42;;;;;;;-5.02;100.00;100256.53;5146970;28;20027;-63
2022/12/14 09:04:53;;;;;;;21.27;19.20;;;;;;;-5.01;100.00;100266.06;5147058;28;20058;-63
2022/12/14 09:07:23;;;;;;;18.52;16.88;;;;;;;-5.07;100.00;100246.50;5146854;28;20022;-63
2022/12/14 09:09:54;;;;;;;20.25;18.27;;;;;;;-4.98;100.00;100258.66;5110918;28;20066;-63
2022/12/14 09:12:24;;;;;;;21.02;19.23;;;;;;;-4.97;100.00;100259.47;5106564;29;20040;-63
2022/12/14 09:14:54;;;;;;;22.23;20.20;;;;;;;-4.98;100.00;100265.72;5106969;29;20027;-62
2022/12/14 09:17:25;;;;;;;22.15;20.05;;;;;;;-5.01;100.00;100264.25;5106978;29;20092;-63
2022/12/14 09:19:56;;;;;;;27.73;20.55;;;;;;;-5.04;100.00;100264.59;5106554;29;20116;-64
2022/12/14 09:22:27;;;;;;;21.45;19.63;;;;;;;-5.06;100.00;100263.94;5106922;29;20028;-64
2022/12/14 09:24:57;;;;;;;21.33;19.48;;;;;;;-5.06;100.00;100277.09;5106959;29;20593;-64
2022/12/14 09:27:32;;;;;;;22.65;20.63;;;;;;;-5.11;100.00;100260.97;5107012;29;20436;-64
2022/12/14 09:30:03;;;;;;;20.80;18.65;;;;;;;-5.11;100.00;100274.97;5089707;29;20193;-63
2022/12/14 09:32:33;;;;;;;19.45;17.50;;;;;;;-5.10;100.00;100271.34;5106334;29;20110;-61
2022/12/14 09:35:04;;;;;;;22.63;20.70;;;;;;;-5.08;100.00;100284.34;5106704;29;20107;-61
2022/12/14 09:37:34;;;;;;;21.35;19.30;;;;;;;-5.12;100.00;100269.88;5112481;28;20472;-64
2022/12/14 09:40:05;;;;;;;22.85;20.27;;;;;;;-5.12;100.00;100273.31;5106003;29;20035;-63
2022/12/14 09:43:08;;;;;;;21.00;18.95;;;;;;;-5.15;100.00;100286.00;5106309;29;20031;-61
2022/12/14 09:45:49;;;;;;;19.30;17.20;;;;;;;-5.13;100.00;100302.44;5091993;29;20047;-64
2022/12/14 09:48:23;;;;;;;22.25;20.33;;;;;;;-5.13;100.00;100302.44;5126226;29;20028;-61
2022/12/14 09:50:53;;;;;;;41.55;20.20;;;;;;;-5.16;100.00;100297.50;5126292;29;20027;-62
2022/12/14 09:53:24;;;;;;;21.23;17.80;;;;;;;-5.17;100.00;100299.31;5125245;28;20034;-63
2022/12/14 09:55:56;;;;;;;24.00;20.98;;;;;;;-5.14;100.00;100300.81;5126130;29;20031;-62
2022/12/14 09:58:28;;;;;;;22.08;20.42;;;;;;;-5.16;100.00;100300.97;5125899;29;20030;-63
2022/12/14 10:01:48;;;;;;;21.45;19.17;;;;;;;-5.15;100.00;100301.78;5126166;29;20024;-61
2022/12/14 10:04:18;;;;;;;22.60;20.10;;;;;;;-5.15;100.00;100299.16;5125582;28;20054;-61
2022/12/14 10:06:55;;;;;;;20.50;18.45;;;;;;;-5.58;100.00;100230.19;5125937;29;20069;-63
2022/12/14 10:09:25;;;;;;;25.70;23.27;;;;;;;-5.13;100.00;100305.06;5125934;29;20483;-63
2022/12/14 10:12:16;;;;;;;21.50;19.65;;;;;;;-5.05;100.00;100310.34;5123270;28;20086;-63
2022/12/14 10:15:08;;;;;;;22.48;20.35;;;;;;;-5.02;100.00;100303.91;5133649;28;20117;-62
2022/12/14 10:17:51;;;;;;;23.02;18.83;;;;;;;-5.04;100.00;100314.59;5114341;28;20023;-63
2022/12/14 10:20:40;;;;;;;24.38;19.98;;;;;;;-4.97;100.00;100301.59;5139928;28;20027;-61
2022/12/14 10:23:14;;;;;;;21.10;19.10;;;;;;;-4.90;100.00;100308.63;5145102;28;20031;-63
2022/12/14 10:25:47;;;;;;;22.60;19.83;;;;;;;-4.80;100.00;100311.06;5145406;28;20029;-64
2022/12/14 10:28:23;;;;;;;21.92;18.85;;;;;;;-4.72;100.00;100300.53;5145538;28;20069;-61
2022/12/14 10:30:57;;;;;;;27.58;21.75;;;;;;;-4.64;100.00;100304.94;5135730;28;20270;-63
2022/12/14 10:33:30;;;;;;;21.33;19.40;;;;;;;-4.55;100.00;100301.25;5144902;28;20134;-63
2022/12/14 10:36:16;;;;;;;22.92;20.73;;;;;;;-4.50;100.00;100296.28;5109988;29;20019;-63
2022/12/14 10:39:01;;;;;;;20.67;18.65;;;;;;;-4.43;100.00;100294.63;5105628;29;20488;-63
2022/12/14 10:41:42;;;;;;;19.95;18.13;;;;;;;-4.37;100.00;100299.22;5105378;29;20059;-63
2022/12/14 10:44:27;;;;;;;18.73;17.05;;;;;;;-4.30;100.00;100294.88;5105045;29;20047;-62
2022/12/14 10:47:33;;;;;;;19.95;17.92;;;;;;;-4.26;100.00;100290.88;5105492;29;20028;-63
2022/12/14 10:50:33;;;;;;;17.83;16.02;;;;;;;-4.20;100.00;100290.19;5105379;29;20032;-63
2022/12/14 10:53:09;;;;;;;19.35;17.30;;;;;;;-4.28;100.00;100266.50;5124240;23;20527;-63
2022/12/14 10:55:41;;;;;;;19.08;17.35;;;;;;;-4.03;100.00;100298.81;5133402;28;20057;-63
2022/12/14 10:58:11;;;;;;;20.27;18.10;;;;;;;-3.96;100.00;100291.03;5144008;28;20399;-63
2022/12/14 11:00:41;;;;;;;19.02;16.33;;;;;;;-3.94;100.00;100296.94;5143663;28;20037;-63
2022/12/14 11:03:14;;;;;;;20.75;19.08;;;;;;;-3.87;100.00;100293.44;5143779;28;20030;-63
2022/12/14 11:06:11;;;;;;;22.02;19.92;;;;;;;-3.77;100.00;100301.13;5143572;28;20035;-64
2022/12/14 11:08:45;;;;;;;19.58;16.65;;;;;;;-3.69;100.00;100297.56;5140474;28;20047;-64
2022/12/14 11:11:19;;;;;;;18.58;16.98;;;;;;;-3.65;100.00;100304.16;5143074;28;20026;-63
2022/12/14 11:14:08;;;;;;;20.10;18.23;;;;;;;-3.59;100.00;100303.44;5148761;23;20169;-63
2022/12/14 11:16:40;;;;;;;18.85;16.88;;;;;;;-3.46;100.00;100304.47;5142305;28;20046;-65
2022/12/14 11:19:16;;;;;;;17.90;16.17;;;;;;;-3.43;100.00;100304.09;5147398;28;20034;-64
2022/12/14 11:21:48;;;;;;;20.77;18.92;;;;;;;-3.31;100.00;100301.88;5146547;28;20031;-66
2022/12/14 11:24:27;;;;;;;18.73;17.15;;;;;;;-3.40;100.00;100282.63;5147507;28;20027;-66
2022/12/14 11:27:01;;;;;;;20.65;18.73;;;;;;;-3.31;100.00;100269.38;5148843;28;20061;-65
2022/12/14 11:29:35;;;;;;;19.25;16.35;;;;;;;-3.06;100.00;100305.06;5148827;28;20542;-66
2022/12/14 11:32:14;;;;;;;23.17;19.90;;;;;;;-2.96;100.00;100283.69;5147081;28;20042;-65
2022/12/14 11:34:54;;;;;;;19.10;17.50;;;;;;;-3.30;100.00;100228.75;5148750;28;20517;-65
2022/12/14 11:37:29;;;;;;;18.93;17.27;;;;;;;-2.78;100.00;100311.38;5149028;28;20023;-65
2022/12/14 11:40:03;;;;;;;17.70;15.98;;;;;;;-2.80;100.00;100294.06;5149492;28;20034;-65
2022/12/14 11:42:36;;;;;;;18.80;17.13;;;;;;;-3.02;100.00;100250.88;5148321;28;20471;-64
2022/12/14 11:45:24;;;;;;;23.13;18.10;;;;;;;-2.70;100.00;100299.88;5149271;28;20027;-65
2022/12/14 11:48:17;;;;;;;19.30;17.80;;;;;;;-2.72;100.00;100297.44;5149614;28;20026;-64
2022/12/14 11:50:50;;;;;;;18.63;15.07;;;;;;;-2.66;100.00;100303.00;5131590;28;20030;-64